Thorntown, Indiana
Current Conditions -  °F | °C
As of 10:55 PM on Friday 24 Oct 2014 (Local Time) from KFKR Reporting Station
Clear Clear  
Wind Chill: 52°   Ceiling: Unl
Heat Index: 52°   Visibility: 10mi
Dew Point: 52°   Wind: 5mph
Humidity: 100%   Direction: 180°S
Pressure: 30.03"   Gusts: NA
Location:  40.13°N, 86.61°W
Report Text: KFKR 250255Z AUTO 18004KT 10SM CLR 11/11 A3003 RMK AO2 T01110111
Loading
Personal Weather Stations






























Interactive Weather Map New forecast layout! Learn more

10-Day Weather Forecast

Advertisements
Track Severe Weather on mobile